Time;durP1;ratioP1;P1;durP2;ratioP2;P2;SDS_P1;SDS_P2;PMS_P1;PMS_P2;Temp;Humidity;BMP_temperature;BMP_pressure;BME280_temperature;BME280_humidity;BME280_pressure;Samples;Min_cycle;Max_cycle;Signal;HPM_P1;HPM_P2
2022/03/15 00:00:23;;;;;;;27.75;10.25;;;5.00;99.90;;;;;;5047340;28;20045;-76
2022/03/15 00:02:49;;;;;;;21.10;8.60;;;5.00;99.90;;;;;;5047375;28;20187;-76
2022/03/15 00:05:18;;;;;;;45.25;9.35;;;5.00;99.90;;;;;;5047610;28;20045;-77
2022/03/15 00:07:44;;;;;;;20.80;7.93;;;5.00;99.90;;;;;;5047135;28;20041;-77
2022/03/15 00:10:12;;;;;;;20.63;7.78;;;5.00;99.90;;;;;;5049416;28;20041;-75
2022/03/15 00:12:39;;;;;;;14.48;8.20;;;5.00;99.90;;;;;;5051266;28;20036;-77
2022/03/15 00:15:07;;;;;;;19.52;9.30;;;4.90;99.90;;;;;;5051744;28;20430;-77
2022/03/15 00:17:34;;;;;;;18.45;8.75;;;4.90;99.90;;;;;;5050029;28;20041;-77
2022/03/15 00:19:59;;;;;;;20.15;8.43;;;4.90;99.90;;;;;;5051857;28;20041;-77
2022/03/15 00:22:25;;;;;;;23.48;9.10;;;4.90;99.90;;;;;;5051512;28;20179;-77
2022/03/15 00:24:51;;;;;;;40.28;8.77;;;4.90;99.90;;;;;;5051289;28;20462;-77
2022/03/15 00:27:17;;;;;;;18.85;8.50;;;4.90;99.90;;;;;;5051610;28;20127;-77
2022/03/15 00:29:45;;;;;;;27.13;9.73;;;4.90;99.90;;;;;;5057867;28;20036;-77
2022/03/15 00:32:19;;;;;;;14.27;8.27;;;4.80;99.90;;;;;;5070030;28;20119;-77
2022/03/15 00:34:47;;;;;;;17.73;8.43;;;4.80;99.90;;;;;;5070798;28;20488;-77
2022/03/15 00:37:13;;;;;;;18.80;8.32;;;4.80;99.90;;;;;;5070755;28;20431;-76
2022/03/15 00:39:39;;;;;;;18.67;8.10;;;4.90;99.90;;;;;;5070672;28;20033;-78
2022/03/15 00:42:05;;;;;;;20.08;8.75;;;4.80;99.90;;;;;;5065512;28;20370;-77
2022/03/15 00:44:30;;;;;;;33.28;9.95;;;4.80;99.90;;;;;;5050497;28;20107;-76
2022/03/15 00:46:56;;;;;;;19.70;9.05;;;4.80;99.90;;;;;;5050206;28;20045;-76
2022/03/15 00:49:23;;;;;;;26.60;9.35;;;4.80;99.90;;;;;;5050961;28;20402;-77
2022/03/15 00:51:49;;;;;;;22.52;9.98;;;4.80;99.90;;;;;;5049279;28;20116;-77
2022/03/15 00:54:15;;;;;;;18.92;8.18;;;4.70;99.90;;;;;;5050658;28;20048;-78
2022/03/15 00:56:41;;;;;;;25.00;9.68;;;4.70;99.90;;;;;;5050503;28;20116;-77
2022/03/15 00:59:08;;;;;;;34.03;12.45;;;4.80;99.90;;;;;;5063682;28;20048;-77
2022/03/15 01:01:33;;;;;;;34.22;10.60;;;4.70;99.90;;;;;;5069687;28;20496;-77
2022/03/15 01:03:59;;;;;;;20.42;8.38;;;4.60;99.90;;;;;;5069035;28;20116;-76
2022/03/15 01:06:25;;;;;;;29.15;10.82;;;4.70;99.90;;;;;;5070458;28;20067;-76
2022/03/15 01:08:50;;;;;;;25.02;11.70;;;4.70;99.90;;;;;;5070151;28;20086;-77
2022/03/15 01:11:16;;;;;;;18.98;10.88;;;4.70;99.90;;;;;;5070633;28;20414;-77
2022/03/15 01:13:41;;;;;;;24.58;9.75;;;4.70;99.90;;;;;;5070329;28;20040;-78
2022/03/15 01:16:07;;;;;;;23.35;9.73;;;4.60;99.90;;;;;;5069395;28;20564;-77
2022/03/15 01:18:34;;;;;;;18.05;10.10;;;4.60;99.90;;;;;;5070002;28;20040;-76
2022/03/15 01:20:59;;;;;;;25.50;12.82;;;4.60;99.90;;;;;;5069831;28;20041;-76
2022/03/15 01:23:25;;;;;;;25.73;13.65;;;4.50;99.90;;;;;;5069050;28;20355;-77
2022/03/15 01:25:50;;;;;;;23.80;13.52;;;4.60;99.90;;;;;;5070579;28;20037;-77
2022/03/15 01:28:16;;;;;;;18.80;11.63;;;4.60;99.90;;;;;;5070446;28;20553;-77
2022/03/15 01:30:42;;;;;;;23.48;11.80;;;4.50;99.90;;;;;;5047722;28;20052;-77
2022/03/15 01:33:07;;;;;;;30.95;10.95;;;4.50;99.90;;;;;;5049849;28;20092;-77
2022/03/15 01:35:33;;;;;;;16.77;10.55;;;4.60;99.90;;;;;;5048398;28;20037;-77
2022/03/15 01:37:59;;;;;;;25.85;10.23;;;4.60;99.90;;;;;;5049714;28;20045;-75
2022/03/15 01:40:25;;;;;;;23.63;10.43;;;4.60;99.90;;;;;;5048941;28;20107;-77
2022/03/15 01:42:50;;;;;;;23.50;11.50;;;4.70;99.90;;;;;;5050060;28;20140;-76
2022/03/15 01:45:16;;;;;;;31.00;12.65;;;4.80;99.90;;;;;;5049018;28;20076;-76
2022/03/15 01:47:43;;;;;;;21.38;11.98;;;4.80;99.90;;;;;;5049381;28;20057;-77
2022/03/15 01:50:09;;;;;;;21.05;12.60;;;4.80;99.90;;;;;;5049849;28;20088;-76
2022/03/15 01:52:35;;;;;;;18.52;12.30;;;4.90;99.90;;;;;;5049324;28;20083;-78
2022/03/15 01:55:01;;;;;;;24.55;12.15;;;5.00;99.90;;;;;;5050077;28;20041;-77
2022/03/15 01:57:27;;;;;;;27.30;12.73;;;5.00;99.90;;;;;;5049404;28;20060;-77
2022/03/15 01:59:53;;;;;;;23.30;12.00;;;5.10;99.90;;;;;;5049837;28;20049;-76
2022/03/15 02:02:18;;;;;;;24.48;14.70;;;5.10;99.90;;;;;;5047569;28;20564;-78
2022/03/15 02:04:44;;;;;;;27.45;12.52;;;5.10;99.90;;;;;;5049240;28;20562;-78
2022/03/15 02:07:13;;;;;;;25.90;14.40;;;5.10;99.90;;;;;;5049243;28;20549;-76
2022/03/15 02:09:40;;;;;;;30.05;13.57;;;5.20;99.90;;;;;;5049036;28;20045;-77
2022/03/15 02:12:07;;;;;;;27.55;13.23;;;5.20;99.90;;;;;;5049735;28;20510;-76
2022/03/15 02:14:34;;;;;;;20.98;12.63;;;5.30;99.90;;;;;;5048766;28;20056;-76
2022/03/15 02:17:00;;;;;;;31.15;13.85;;;5.30;99.90;;;;;;5048066;28;20045;-77
2022/03/15 02:19:27;;;;;;;22.77;12.15;;;5.40;99.90;;;;;;5049178;28;20217;-78
2022/03/15 02:21:53;;;;;;;33.22;15.70;;;5.40;99.90;;;;;;5049592;28;20041;-78
2022/03/15 02:24:19;;;;;;;24.60;14.00;;;5.40;99.90;;;;;;5048899;28;20102;-77
2022/03/15 02:26:45;;;;;;;21.65;11.80;;;5.40;99.90;;;;;;5047692;28;20187;-78
2022/03/15 02:29:10;;;;;;;25.70;14.80;;;5.50;99.90;;;;;;5049143;28;20094;-76
2022/03/15 02:31:36;;;;;;;22.23;12.57;;;5.50;99.90;;;;;;5058048;28;20471;-77
2022/03/15 02:34:02;;;;;;;26.83;11.77;;;5.50;99.90;;;;;;5068142;28;20123;-76
2022/03/15 02:36:27;;;;;;;31.98;13.48;;;5.50;99.90;;;;;;5068564;28;20458;-77
2022/03/15 02:38:53;;;;;;;35.63;14.48;;;5.60;99.90;;;;;;5067864;28;20113;-77
2022/03/15 02:41:18;;;;;;;33.50;14.15;;;5.60;99.90;;;;;;5069078;28;20127;-77
2022/03/15 02:43:44;;;;;;;26.00;13.50;;;5.70;99.90;;;;;;5068447;28;20040;-78
2022/03/15 02:46:11;;;;;;;40.60;15.77;;;5.70;99.90;;;;;;5068180;28;20080;-77
2022/03/15 02:48:37;;;;;;;22.50;11.30;;;5.70;99.90;;;;;;5067751;28;20094;-76
2022/03/15 02:51:08;;;;;;;30.15;13.75;;;5.70;99.90;;;;;;5068431;28;20052;-77
2022/03/15 02:53:37;;;;;;;31.38;14.93;;;5.80;99.90;;;;;;5066823;28;20127;-77
2022/03/15 02:56:05;;;;;;;25.75;13.38;;;5.80;99.90;;;;;;5068303;28;20048;-78
2022/03/15 02:58:31;;;;;;;29.40;13.68;;;5.80;99.90;;;;;;5064692;28;20040;-75
2022/03/15 03:00:56;;;;;;;25.40;15.65;;;5.80;99.90;;;;;;5060446;28;20040;-77
2022/03/15 03:03:23;;;;;;;20.45;11.25;;;5.80;99.90;;;;;;5068360;28;20060;-76
2022/03/15 03:05:49;;;;;;;31.65;12.80;;;5.90;99.90;;;;;;5067863;28;20055;-78
2022/03/15 03:08:16;;;;;;;23.05;13.70;;;5.80;99.90;;;;;;5068354;28;20040;-77
2022/03/15 03:10:42;;;;;;;30.85;14.15;;;5.90;99.90;;;;;;5067817;28;20048;-76
2022/03/15 03:13:08;;;;;;;27.17;12.52;;;5.90;99.90;;;;;;5067973;28;20047;-77
2022/03/15 03:15:34;;;;;;;29.48;14.13;;;5.90;99.90;;;;;;5067183;28;20375;-77
2022/03/15 03:17:59;;;;;;;22.00;12.82;;;5.90;99.90;;;;;;5067570;28;20040;-77
2022/03/15 03:20:27;;;;;;;26.55;13.02;;;6.00;99.90;;;;;;5068537;28;20051;-78
2022/03/15 03:22:58;;;;;;;24.85;11.60;;;6.00;99.90;;;;;;5066758;28;20036;-78
2022/03/15 03:25:25;;;;;;;24.98;14.57;;;6.00;99.90;;;;;;5048858;28;20619;-77
2022/03/15 03:27:50;;;;;;;23.98;13.75;;;6.10;99.90;;;;;;5048060;28;20119;-77
2022/03/15 03:30:16;;;;;;;32.47;14.35;;;6.00;99.90;;;;;;5046960;28;20125;-77
2022/03/15 03:32:42;;;;;;;38.72;15.13;;;6.00;99.90;;;;;;5046361;28;20091;-77
2022/03/15 03:35:08;;;;;;;38.40;14.63;;;6.00;99.90;;;;;;5048022;28;20087;-77
2022/03/15 03:37:34;;;;;;;36.97;13.93;;;6.00;99.90;;;;;;5047474;28;20375;-77
2022/03/15 03:40:00;;;;;;;27.27;13.18;;;6.10;99.90;;;;;;5046729;28;20068;-77
2022/03/15 03:42:26;;;;;;;26.55;12.30;;;6.10;99.90;;;;;;5047497;28;20049;-77
2022/03/15 03:44:51;;;;;;;32.03;14.48;;;6.10;99.90;;;;;;5046893;28;20060;-77
2022/03/15 03:47:17;;;;;;;23.67;13.73;;;6.10;99.90;;;;;;5047793;28;20061;-76
2022/03/15 03:49:43;;;;;;;22.85;11.82;;;6.10;99.90;;;;;;5047631;28;20052;-77
2022/03/15 03:52:12;;;;;;;25.77;13.50;;;6.10;99.90;;;;;;5048017;28;20507;-76
2022/03/15 03:54:38;;;;;;;37.33;16.15;;;6.20;99.90;;;;;;5047478;28;20037;-77
2022/03/15 03:57:04;;;;;;;27.65;13.90;;;6.10;99.90;;;;;;5047696;28;20053;-77
2022/03/15 03:59:29;;;;;;;24.33;14.93;;;6.10;99.90;;;;;;5046948;28;20514;-77
2022/03/15 04:01:56;;;;;;;22.70;12.43;;;6.10;99.90;;;;;;5046160;28;20542;-76
2022/03/15 04:04:21;;;;;;;27.42;15.00;;;6.10;99.90;;;;;;5047913;28;20053;-77
2022/03/15 04:06:47;;;;;;;26.83;14.07;;;6.10;99.90;;;;;;5047399;28;20044;-77
2022/03/15 04:09:13;;;;;;;28.15;12.88;;;6.10;99.90;;;;;;5047618;28;20051;-77
2022/03/15 04:11:40;;;;;;;23.60;14.07;;;6.10;99.90;;;;;;5047056;28;20103;-77
2022/03/15 04:14:07;;;;;;;40.30;14.13;;;6.10;99.90;;;;;;5047259;28;20562;-76
2022/03/15 04:16:33;;;;;;;22.33;12.23;;;6.20;99.90;;;;;;5046634;28;20049;-76
2022/03/15 04:18:58;;;;;;;26.63;13.10;;;6.20;99.90;;;;;;5047455;28;20465;-77
2022/03/15 04:21:24;;;;;;;44.72;14.95;;;6.20;99.90;;;;;;5047801;28;20511;-77
2022/03/15 04:23:56;;;;;;;27.30;13.80;;;6.20;99.90;;;;;;5047677;28;20069;-77
2022/03/15 04:26:23;;;;;;;39.58;16.70;;;6.20;99.90;;;;;;5047795;28;20124;-77
2022/03/15 04:28:49;;;;;;;26.70;15.90;;;6.20;99.90;;;;;;5047272;28;20124;-77
2022/03/15 04:31:15;;;;;;;31.48;15.40;;;6.20;99.90;;;;;;5045226;28;20119;-76
2022/03/15 04:33:41;;;;;;;31.90;15.85;;;6.20;99.90;;;;;;5047327;28;20506;-77
2022/03/15 04:36:07;;;;;;;24.92;15.73;;;6.20;99.90;;;;;;5047322;28;20518;-76
2022/03/15 04:38:33;;;;;;;32.65;17.40;;;6.20;99.90;;;;;;5047201;28;20404;-76
2022/03/15 04:40:59;;;;;;;25.67;15.88;;;6.20;99.90;;;;;;5047368;28;20086;-77
2022/03/15 04:43:25;;;;;;;22.33;13.90;;;6.10;99.90;;;;;;5047529;28;20045;-77
2022/03/15 04:45:51;;;;;;;25.67;16.65;;;6.10;99.90;;;;;;5046698;28;20060;-77
2022/03/15 04:48:18;;;;;;;23.20;15.07;;;6.10;99.90;;;;;;5047154;28;20136;-76
2022/03/15 04:50:44;;;;;;;28.25;16.60;;;6.10;99.90;;;;;;5047091;28;20555;-75
2022/03/15 04:53:10;;;;;;;27.17;15.93;;;6.10;99.90;;;;;;5061993;28;20058;-77
2022/03/15 04:55:36;;;;;;;30.58;18.23;;;6.10;99.90;;;;;;5067135;28;20044;-77
2022/03/15 04:58:01;;;;;;;33.90;17.60;;;6.10;99.90;;;;;;5069439;28;20047;-77
2022/03/15 05:00:27;;;;;;;32.08;18.15;;;6.10;99.90;;;;;;5069828;28;20068;-77
2022/03/15 05:02:53;;;;;;;27.27;16.17;;;6.10;99.90;;;;;;5071115;28;20040;-77
2022/03/15 05:05:18;;;;;;;33.45;17.92;;;6.00;99.90;;;;;;5070698;28;20503;-77
2022/03/15 05:07:44;;;;;;;36.03;18.70;;;6.00;99.90;;;;;;5052271;28;20044;-77
2022/03/15 05:12:54;;;;;;;39.35;19.00;;;6.10;99.90;;;;;;5070914;28;20045;-76
2022/03/15 05:15:20;;;;;;;36.30;17.55;;;6.00;99.90;;;;;;5069691;28;20174;-77
2022/03/15 05:17:46;;;;;;;32.15;18.05;;;6.00;99.90;;;;;;5070369;28;20163;-76
2022/03/15 05:20:14;;;;;;;30.92;17.70;;;6.00;99.90;;;;;;5070572;28;20037;-78
2022/03/15 05:22:39;;;;;;;35.72;19.42;;;6.00;99.90;;;;;;5059021;28;20048;-76
2022/03/15 05:25:06;;;;;;;28.33;16.33;;;6.10;99.90;;;;;;5050518;28;20041;-76
2022/03/15 05:27:35;;;;;;;36.50;17.90;;;6.10;99.90;;;;;;5050476;28;20037;-77
2022/03/15 05:30:02;;;;;;;36.78;19.25;;;6.10;99.90;;;;;;5049746;28;20045;-76
2022/03/15 05:32:28;;;;;;;32.10;18.90;;;6.10;99.90;;;;;;5050145;28;20041;-76
2022/03/15 05:34:54;;;;;;;29.38;18.23;;;6.10;99.90;;;;;;5050653;28;20040;-78
2022/03/15 05:37:19;;;;;;;27.73;17.45;;;6.10;99.90;;;;;;5049765;28;20044;-76
2022/03/15 05:39:45;;;;;;;31.98;17.02;;;6.20;99.90;;;;;;5049726;28;20589;-77
2022/03/15 05:42:12;;;;;;;36.00;17.98;;;6.10;99.90;;;;;;5049496;28;20052;-78
2022/03/15 05:44:38;;;;;;;34.13;16.70;;;6.20;99.90;;;;;;5048843;28;20645;-76
2022/03/15 05:47:04;;;;;;;38.25;19.45;;;6.10;99.90;;;;;;5049805;28;20057;-76
2022/03/15 05:49:31;;;;;;;26.83;17.98;;;6.20;99.90;;;;;;5049090;28;20079;-76
2022/03/15 05:51:57;;;;;;;34.30;18.55;;;6.10;99.90;;;;;;5049312;28;20076;-76
2022/03/15 05:54:22;;;;;;;28.50;17.77;;;6.10;99.90;;;;;;5049878;28;20091;-77
2022/03/15 05:56:48;;;;;;;28.33;16.95;;;6.10;99.90;;;;;;5049301;28;20045;-76
2022/03/15 05:59:13;;;;;;;39.42;17.88;;;6.10;99.90;;;;;;5049800;28;20044;-75
2022/03/15 06:01:39;;;;;;;27.95;17.08;;;6.10;99.90;;;;;;5048400;28;20037;-75
2022/03/15 06:04:07;;;;;;;31.52;17.98;;;6.10;99.90;;;;;;5049785;28;20041;-76
2022/03/15 06:06:33;;;;;;;33.35;19.88;;;6.10;99.90;;;;;;5048188;28;20048;-76
2022/03/15 06:08:59;;;;;;;33.70;18.27;;;6.10;99.90;;;;;;5047717;28;20056;-76
2022/03/15 06:11:25;;;;;;;50.92;18.98;;;6.20;99.90;;;;;;5048500;28;20044;-75
2022/03/15 06:13:50;;;;;;;32.83;19.00;;;6.20;99.90;;;;;;5049727;28;20037;-76
2022/03/15 06:16:16;;;;;;;31.98;18.83;;;6.10;99.90;;;;;;5048657;28;20056;-77
2022/03/15 06:18:41;;;;;;;41.47;22.30;;;6.20;99.90;;;;;;5047944;28;20084;-77
2022/03/15 06:21:07;;;;;;;35.63;20.05;;;6.20;99.90;;;;;;5049319;28;20049;-76
2022/03/15 06:23:33;;;;;;;33.00;18.90;;;6.20;99.90;;;;;;5049078;28;20129;-76
2022/03/15 06:25:58;;;;;;;31.25;19.58;;;6.20;99.90;;;;;;5049750;28;20609;-77
2022/03/15 06:28:24;;;;;;;35.70;19.63;;;6.20;99.90;;;;;;5049562;28;20124;-77
2022/03/15 06:30:50;;;;;;;37.15;19.88;;;6.30;99.90;;;;;;5066088;28;20097;-76
2022/03/15 06:33:16;;;;;;;39.97;21.95;;;6.30;99.90;;;;;;5070127;28;20190;-76
2022/03/15 06:35:42;;;;;;;39.60;19.67;;;6.30;99.90;;;;;;5067389;28;20505;-75
2022/03/15 06:38:09;;;;;;;40.10;21.33;;;6.40;99.90;;;;;;5068992;28;20123;-75
2022/03/15 06:40:36;;;;;;;31.92;18.38;;;6.40;99.90;;;;;;5069023;28;20044;-76
2022/03/15 06:43:02;;;;;;;34.95;21.05;;;6.40;99.90;;;;;;5068711;28;20132;-75
2022/03/15 06:45:28;;;;;;;40.00;21.10;;;6.40;99.90;;;;;;5067382;28;20158;-75
2022/03/15 06:47:54;;;;;;;39.97;21.00;;;6.50;99.90;;;;;;5069003;28;20056;-75
2022/03/15 06:50:20;;;;;;;29.52;17.52;;;6.50;99.90;;;;;;5068113;28;20048;-76
2022/03/15 06:52:46;;;;;;;34.17;18.90;;;6.50;99.90;;;;;;5052410;28;20048;-76
2022/03/15 06:55:13;;;;;;;37.72;21.35;;;6.60;99.90;;;;;;5048717;28;20045;-76
2022/03/15 06:57:39;;;;;;;31.85;20.05;;;6.50;99.90;;;;;;5048082;28;20055;-76
2022/03/15 07:00:08;;;;;;;35.95;19.33;;;6.60;99.90;;;;;;5047432;28;20047;-76
2022/03/15 07:02:34;;;;;;;36.30;19.85;;;6.60;99.90;;;;;;5048030;28;20123;-76
2022/03/15 07:04:59;;;;;;;36.00;20.10;;;6.70;99.90;;;;;;5048218;28;20112;-76
2022/03/15 07:07:25;;;;;;;37.58;21.13;;;6.70;99.90;;;;;;5048248;28;20065;-77
2022/03/15 07:09:52;;;;;;;32.58;19.60;;;6.80;99.90;;;;;;5048659;28;20053;-77
2022/03/15 07:12:18;;;;;;;34.00;21.48;;;6.80;99.90;;;;;;5048415;28;20260;-78
2022/03/15 07:14:45;;;;;;;42.40;19.60;;;6.80;99.90;;;;;;5046615;28;20051;-75
2022/03/15 07:17:11;;;;;;;30.55;18.30;;;6.80;99.90;;;;;;5047992;28;20557;-77
2022/03/15 07:19:37;;;;;;;31.35;18.58;;;6.80;99.90;;;;;;5047082;28;20124;-77
2022/03/15 07:22:03;;;;;;;30.05;18.60;;;6.80;99.90;;;;;;5048142;28;20049;-75
2022/03/15 07:24:28;;;;;;;31.02;18.58;;;6.90;99.90;;;;;;5046411;28;20098;-76
2022/03/15 07:26:54;;;;;;;37.10;20.30;;;6.90;99.90;;;;;;5048203;28;20037;-76
2022/03/15 07:29:20;;;;;;;41.17;21.25;;;6.90;99.90;;;;;;5046246;28;20033;-76
2022/03/15 07:31:45;;;;;;;33.58;19.15;;;6.90;99.90;;;;;;5050647;28;20108;-76
2022/03/15 07:34:11;;;;;;;38.38;22.00;;;6.90;99.90;;;;;;5047313;28;20049;-76
2022/03/15 07:36:37;;;;;;;51.22;20.95;;;6.90;99.90;;;;;;5046249;28;20045;-75
2022/03/15 07:39:05;;;;;;;38.47;20.48;;;6.90;99.90;;;;;;5047580;28;20060;-75
2022/03/15 07:41:32;;;;;;;44.17;22.45;;;7.00;99.90;;;;;;5047516;28;20041;-75
2022/03/15 07:43:58;;;;;;;38.10;22.58;;;7.10;99.90;;;;;;5046142;28;20514;-76
2022/03/15 07:46:24;;;;;;;35.00;19.55;;;7.10;99.90;;;;;;5046999;28;20053;-76
2022/03/15 07:48:50;;;;;;;34.08;20.98;;;7.10;99.90;;;;;;5047049;28;20045;-76
2022/03/15 07:51:15;;;;;;;35.92;20.95;;;7.10;99.90;;;;;;5052338;28;20052;-76
2022/03/15 07:53:41;;;;;;;41.38;23.83;;;7.20;99.90;;;;;;5067641;28;20120;-77
2022/03/15 07:56:06;;;;;;;46.38;25.63;;;7.20;99.90;;;;;;5067810;28;20045;-76
2022/03/15 07:58:32;;;;;;;35.53;22.77;;;7.30;99.90;;;;;;5067157;28;20044;-76
2022/03/15 08:00:59;;;;;;;38.38;23.70;;;7.30;99.90;;;;;;5058273;28;20041;-76
2022/03/15 08:03:24;;;;;;;51.22;25.67;;;7.40;99.90;;;;;;5047495;28;20094;-77
2022/03/15 08:05:51;;;;;;;40.17;23.75;;;7.50;99.90;;;;;;5060057;28;20112;-75
2022/03/15 08:08:16;;;;;;;41.30;27.50;;;7.60;99.90;;;;;;5067524;28;20044;-76
2022/03/15 08:10:43;;;;;;;51.08;26.85;;;7.50;99.90;;;;;;5067270;28;20041;-75
2022/03/15 08:13:09;;;;;;;37.67;26.05;;;7.60;99.90;;;;;;5066008;28;20055;-75
2022/03/15 08:15:35;;;;;;;48.92;27.63;;;7.70;99.90;;;;;;5066773;28;20045;-76
2022/03/15 08:18:03;;;;;;;47.83;28.58;;;7.70;99.90;;;;;;5067088;28;20040;-75
2022/03/15 08:20:41;;;;;;;44.55;28.45;;;7.80;99.90;;;;;;5067263;28;20051;-76
2022/03/15 08:23:10;;;;;;;42.88;27.40;;;7.80;99.90;;;;;;5067459;28;20120;-75
2022/03/15 08:25:36;;;;;;;41.97;27.02;;;7.80;99.90;;;;;;5067161;28;20044;-76
2022/03/15 08:28:02;;;;;;;43.20;28.88;;;7.90;99.90;;;;;;5066125;28;20491;-76
2022/03/15 08:30:28;;;;;;;43.65;27.92;;;8.00;99.90;;;;;;5065280;28;20072;-75
2022/03/15 08:32:54;;;;;;;44.60;27.77;;;8.10;99.90;;;;;;5069715;28;20383;-76
2022/03/15 08:35:21;;;;;;;38.45;27.48;;;8.10;99.90;;;;;;5071320;28;20151;-76
2022/03/15 08:37:51;;;;;;;33.47;24.23;;;8.30;99.90;;;;;;5070523;28;20049;-76
2022/03/15 08:40:18;;;;;;;38.53;26.02;;;8.30;99.90;;;;;;5071164;28;20048;-76
2022/03/15 08:42:44;;;;;;;36.33;24.75;;;8.40;99.90;;;;;;5070825;28;20051;-75
2022/03/15 08:45:10;;;;;;;41.03;26.98;;;8.30;99.90;;;;;;5070194;28;20036;-75
2022/03/15 08:47:37;;;;;;;35.60;26.75;;;8.40;99.90;;;;;;5069132;28;20135;-76
2022/03/15 08:50:05;;;;;;;34.25;25.85;;;8.40;99.90;;;;;;5070926;28;20044;-76
2022/03/15 08:52:31;;;;;;;35.40;24.88;;;8.40;99.90;;;;;;5052755;28;20415;-77
2022/03/15 08:54:57;;;;;;;33.85;25.42;;;8.50;99.90;;;;;;5050766;28;20403;-75
2022/03/15 08:57:23;;;;;;;34.63;26.38;;;8.60;99.90;;;;;;5050855;28;20045;-75
2022/03/15 08:59:49;;;;;;;39.05;25.83;;;8.50;99.90;;;;;;5049418;28;20132;-76
2022/03/15 09:02:17;;;;;;;34.28;24.73;;;8.60;99.90;;;;;;5050658;28;20045;-76
2022/03/15 09:04:45;;;;;;;46.22;24.90;;;8.60;99.90;;;;;;5050420;28;20077;-76
2022/03/15 09:07:11;;;;;;;37.25;25.65;;;8.50;99.90;;;;;;5050910;28;20088;-76
2022/03/15 09:09:37;;;;;;;35.85;23.65;;;8.50;99.90;;;;;;5050056;28;20065;-75
2022/03/15 09:12:03;;;;;;;36.75;25.75;;;8.60;99.90;;;;;;5064236;28;20047;-75
2022/03/15 09:14:29;;;;;;;40.33;25.20;;;8.60;99.90;;;;;;5068335;28;20040;-75
2022/03/15 09:16:55;;;;;;;40.58;24.42;;;8.70;99.90;;;;;;5070465;28;20121;-75
2022/03/15 09:19:21;;;;;;;42.72;25.55;;;8.60;99.90;;;;;;5069223;28;20040;-76
2022/03/15 09:21:47;;;;;;;36.70;24.42;;;8.60;99.90;;;;;;5069974;28;20052;-75
2022/03/15 09:24:12;;;;;;;40.83;24.85;;;8.70;99.90;;;;;;5070052;28;20032;-75
2022/03/15 09:26:41;;;;;;;35.42;22.73;;;8.70;99.90;;;;;;5069929;28;20090;-75
2022/03/15 09:29:06;;;;;;;34.00;22.92;;;8.70;99.90;;;;;;5069221;28;20398;-75
2022/03/15 09:31:32;;;;;;;38.15;24.15;;;8.70;99.90;;;;;;5068838;28;20044;-76
2022/03/15 09:33:58;;;;;;;38.95;23.77;;;8.70;99.90;;;;;;5051882;28;20427;-76
2022/03/15 09:36:23;;;;;;;36.33;24.85;;;8.80;99.90;;;;;;5070201;28;20045;-77
2022/03/15 09:38:49;;;;;;;33.88;23.15;;;8.70;99.90;;;;;;5069307;28;20040;-76
2022/03/15 09:41:19;;;;;;;33.42;22.25;;;8.80;99.90;;;;;;5060694;28;20139;-77
2022/03/15 09:43:46;;;;;;;38.30;25.08;;;8.70;99.90;;;;;;5048735;28;20120;-76
2022/03/15 09:46:13;;;;;;;29.63;23.00;;;9.00;99.90;;;;;;5049004;28;20120;-77
2022/03/15 09:48:42;;;;;;;37.92;23.80;;;9.10;99.90;;;;;;5049056;28;20084;-77
2022/03/15 09:51:13;;;;;;;37.40;27.02;;;9.20;99.90;;;;;;5049691;28;20045;-77
2022/03/15 09:53:40;;;;;;;35.33;24.55;;;9.40;99.90;;;;;;5049127;28;20037;-77
2022/03/15 09:56:06;;;;;;;36.70;24.20;;;9.40;99.90;;;;;;5049446;28;20549;-77
2022/03/15 09:58:32;;;;;;;41.72;26.27;;;9.40;99.90;;;;;;5049180;28;20084;-77
2022/03/15 10:00:57;;;;;;;33.95;22.63;;;9.30;99.90;;;;;;5049907;28;20033;-76
2022/03/15 10:03:24;;;;;;;32.53;21.77;;;9.20;99.90;;;;;;5049709;28;20060;-76
2022/03/15 10:05:50;;;;;;;29.85;22.27;;;9.30;99.90;;;;;;5049134;28;20533;-77
2022/03/15 10:08:17;;;;;;;31.88;21.80;;;9.40;99.90;;;;;;5049618;28;20091;-75
2022/03/15 10:10:53;;;;;;;32.72;23.90;;;9.30;99.90;;;;;;5047720;28;20477;-76
2022/03/15 10:13:20;;;;;;;33.40;22.63;;;9.40;99.90;;;;;;5049323;28;20393;-76
2022/03/15 10:15:53;;;;;;;32.17;23.23;;;9.20;99.90;;;;;;5047855;28;20075;-76
2022/03/15 10:18:20;;;;;;;28.17;22.67;;;9.20;99.90;;;;;;5049151;28;20049;-76
2022/03/15 10:20:46;;;;;;;28.75;22.73;;;9.20;99.90;;;;;;5049060;28;20049;-76
2022/03/15 10:23:14;;;;;;;37.65;22.45;;;9.20;99.90;;;;;;5049292;28;20128;-76
2022/03/15 10:25:45;;;;;;;30.30;23.35;;;9.20;99.90;;;;;;5049420;28;20041;-76
2022/03/15 10:28:12;;;;;;;30.67;23.63;;;9.20;99.90;;;;;;5049139;28;20045;-76
2022/03/15 10:30:39;;;;;;;32.63;23.08;;;9.10;99.90;;;;;;5048140;28;20041;-77
2022/03/15 10:33:06;;;;;;;34.80;22.50;;;9.20;99.90;;;;;;5047217;28;20045;-76
2022/03/15 10:35:40;;;;;;;36.38;24.63;;;9.00;99.90;;;;;;5048450;28;20041;-76
2022/03/15 10:38:07;;;;;;;35.03;24.25;;;9.10;99.90;;;;;;5031745;28;20037;-77
2022/03/15 10:40:41;;;;;;;29.92;23.92;;;9.10;99.90;;;;;;5048533;28;20045;-76
2022/03/15 10:43:20;;;;;;;37.95;25.15;;;9.10;99.90;;;;;;5048668;28;20411;-77
2022/03/15 10:45:48;;;;;;;34.85;24.23;;;8.90;99.90;;;;;;5046198;28;20649;-77
2022/03/15 10:48:23;;;;;;;32.05;23.40;;;8.90;99.90;;;;;;5047216;28;20132;-76
2022/03/15 10:50:53;;;;;;;38.75;26.35;;;9.00;99.90;;;;;;5048327;28;20049;-77
2022/03/15 10:53:19;;;;;;;30.55;24.23;;;9.00;99.90;;;;;;5047862;28;20045;-76
2022/03/15 10:55:44;;;;;;;33.88;23.80;;;9.00;99.90;;;;;;5048305;28;20044;-76
2022/03/15 10:58:12;;;;;;;33.03;22.05;;;9.00;99.90;;;;;;5048547;28;21220;-77
2022/03/15 11:00:41;;;;;;;32.90;20.85;;;9.00;99.90;;;;;;5047353;28;20404;-78
2022/03/15 11:03:10;;;;;;;24.00;19.08;;;9.00;99.90;;;;;;5048573;28;20099;-76
2022/03/15 11:05:41;;;;;;;27.13;21.55;;;9.00;99.90;;;;;;5049060;28;20045;-77
2022/03/15 11:08:09;;;;;;;28.92;18.88;;;9.10;99.90;;;;;;5051308;28;20083;-78
2022/03/15 11:10:37;;;;;;;27.35;20.17;;;9.00;99.90;;;;;;5047962;28;20037;-77
2022/03/15 11:13:12;;;;;;;30.92;21.00;;;9.00;99.90;;;;;;5048731;28;20511;-77
2022/03/15 11:15:48;;;;;;;31.50;19.92;;;9.00;99.90;;;;;;5048170;28;20045;-77
2022/03/15 11:18:16;;;;;;;32.33;20.45;;;9.10;99.90;;;;;;5048375;28;20052;-78
2022/03/15 11:20:44;;;;;;;27.13;19.60;;;9.10;99.90;;;;;;5047779;28;20041;-77
2022/03/15 11:23:12;;;;;;;27.75;19.85;;;9.00;99.90;;;;;;5057044;28;20036;-77
2022/03/15 11:25:39;;;;;;;30.05;18.65;;;9.00;99.90;;;;;;5067937;28;20036;-77
2022/03/15 11:28:09;;;;;;;37.72;19.40;;;9.10;99.90;;;;;;5068094;28;20048;-77
2022/03/15 11:30:35;;;;;;;27.27;20.70;;;9.10;99.90;;;;;;5049211;28;20066;-77
2022/03/15 11:33:03;;;;;;;32.58;20.60;;;9.20;99.90;;;;;;5067726;28;20528;-77
2022/03/15 11:35:31;;;;;;;30.85;22.27;;;9.30;99.90;;;;;;5049810;28;20048;-77
2022/03/15 11:37:59;;;;;;;26.20;18.02;;;9.40;99.90;;;;;;5068068;28;20094;-77
2022/03/15 11:40:25;;;;;;;26.35;19.75;;;9.40;99.90;;;;;;5067457;28;20119;-78
2022/03/15 11:42:59;;;;;;;33.90;22.10;;;9.60;99.90;;;;;;5067948;28;20207;-77
2022/03/15 11:45:31;;;;;;;38.15;21.75;;;9.80;99.90;;;;;;5065922;28;20091;-78
2022/03/15 11:48:18;;;;;;;31.80;23.15;;;9.90;99.90;;;;;;5067838;28;20041;-77
2022/03/15 11:51:37;;;;;;;36.50;23.65;;;10.10;99.90;;;;;;5067326;28;20521;-77
2022/03/15 11:54:21;;;;;;;30.60;22.70;;;10.40;99.90;;;;;;5048109;28;20049;-78
2022/03/15 11:57:09;;;;;;;30.65;18.92;;;10.50;99.90;;;;;;5061554;28;20102;-78
2022/03/15 11:59:46;;;;;;;25.02;19.25;;;10.50;99.90;;;;;;5066321;28;20048;-77
2022/03/15 12:02:11;;;;;;;24.35;18.38;;;10.80;99.90;;;;;;5066288;28;20055;-77
2022/03/15 12:04:43;;;;;;;28.15;20.00;;;10.90;99.90;;;;;;5068052;28;20036;-78
2022/03/15 12:07:09;;;;;;;26.00;15.55;;;11.10;99.90;;;;;;5071663;28;20053;-78
2022/03/15 12:09:36;;;;;;;17.67;13.23;;;11.10;99.90;;;;;;5071629;28;20121;-77
2022/03/15 12:12:10;;;;;;;19.38;14.45;;;11.20;99.90;;;;;;5071775;28;20040;-78
2022/03/15 12:14:43;;;;;;;24.73;12.88;;;11.20;99.90;;;;;;5069170;28;20094;-77
2022/03/15 12:17:11;;;;;;;18.40;12.05;;;11.20;99.90;;;;;;5071507;28;20052;-78
2022/03/15 12:19:48;;;;;;;16.83;12.10;;;11.20;99.90;;;;;;5071104;28;20889;-77
2022/03/15 12:22:24;;;;;;;18.23;12.38;;;11.10;99.90;;;;;;5068941;28;20075;-77
2022/03/15 12:25:03;;;;;;;17.85;12.23;;;11.20;99.90;;;;;;5050956;28;20412;-77
2022/03/15 12:27:29;;;;;;;13.13;10.45;;;11.10;99.90;;;;;;5050949;28;20488;-78
2022/03/15 12:29:58;;;;;;;15.15;10.00;;;11.40;99.90;;;;;;5050804;28;20036;-79
2022/03/15 12:32:25;;;;;;;17.92;10.38;;;11.50;99.90;;;;;;5052112;28;20066;-80
2022/03/15 12:34:56;;;;;;;10.25;6.97;;;11.60;99.90;;;;;;5049766;28;20071;-79
2022/03/15 12:37:37;;;;;;;12.95;7.65;;;11.50;99.90;;;;;;5050152;28;20055;-78
2022/03/15 12:40:09;;;;;;;15.13;7.95;;;11.70;99.90;;;;;;5050932;28;20112;-78